sensor_id;sensor_type;location;lat;lon;timestamp;P1;durP1;ratioP1;P2;durP2;ratioP2
40074;SDS011;26529;51.530;11.754;2022-10-17T00:01:03;5.68;;;1.33;;
40074;SDS011;26529;51.530;11.754;2022-10-17T00:03:30;6.22;;;2.38;;
40074;SDS011;26529;51.530;11.754;2022-10-17T00:05:56;6.97;;;1.45;;
40074;SDS011;26529;51.530;11.754;2022-10-17T00:08:21;6.13;;;1.25;;
40074;SDS011;26529;51.530;11.754;2022-10-17T00:10:57;4.97;;;1.90;;
40074;SDS011;26529;51.530;11.754;2022-10-17T00:13:24;3.78;;;1.58;;
40074;SDS011;26529;51.530;11.754;2022-10-17T00:15:50;6.30;;;1.73;;
40074;SDS011;26529;51.530;11.754;2022-10-17T00:18:16;6.43;;;1.73;;
40074;SDS011;26529;51.530;11.754;2022-10-17T00:20:42;5.25;;;1.75;;
40074;SDS011;26529;51.530;11.754;2022-10-17T00:23:07;6.03;;;1.98;;
40074;SDS011;26529;51.530;11.754;2022-10-17T00:25:33;4.30;;;1.65;;
40074;SDS011;26529;51.530;11.754;2022-10-17T00:27:58;5.85;;;1.67;;
40074;SDS011;26529;51.530;11.754;2022-10-17T00:30:24;5.00;;;2.03;;
40074;SDS011;26529;51.530;11.754;2022-10-17T00:32:50;3.83;;;1.08;;
40074;SDS011;26529;51.530;11.754;2022-10-17T00:35:15;5.97;;;1.77;;
40074;SDS011;26529;51.530;11.754;2022-10-17T00:37:41;6.25;;;1.45;;
40074;SDS011;26529;51.530;11.754;2022-10-17T00:40:07;5.63;;;1.65;;
40074;SDS011;26529;51.530;11.754;2022-10-17T00:42:33;5.78;;;1.50;;
40074;SDS011;26529;51.530;11.754;2022-10-17T00:45:02;5.55;;;1.38;;
40074;SDS011;26529;51.530;11.754;2022-10-17T00:47:45;7.07;;;1.77;;
40074;SDS011;26529;51.530;11.754;2022-10-17T00:50:15;6.50;;;2.22;;
40074;SDS011;26529;51.530;11.754;2022-10-17T00:52:43;5.25;;;1.55;;
40074;SDS011;26529;51.530;11.754;2022-10-17T00:55:19;2.80;;;1.20;;
40074;SDS011;26529;51.530;11.754;2022-10-17T00:57:48;6.50;;;1.77;;
40074;SDS011;26529;51.530;11.754;2022-10-17T01:00:15;7.30;;;2.15;;
40074;SDS011;26529;51.530;11.754;2022-10-17T01:02:41;3.40;;;1.58;;
40074;SDS011;26529;51.530;11.754;2022-10-17T01:05:07;4.60;;;1.25;;
40074;SDS011;26529;51.530;11.754;2022-10-17T01:07:33;4.93;;;1.65;;
40074;SDS011;26529;51.530;11.754;2022-10-17T01:10:00;6.45;;;1.70;;
40074;SDS011;26529;51.530;11.754;2022-10-17T01:15:22;5.35;;;1.27;;
40074;SDS011;26529;51.530;11.754;2022-10-17T01:32:27;5.70;;;1.60;;
40074;SDS011;26529;51.530;11.754;2022-10-17T01:37:58;2.38;;;1.35;;
40074;SDS011;26529;51.530;11.754;2022-10-17T01:40:45;3.72;;;1.50;;
40074;SDS011;26529;51.530;11.754;2022-10-17T01:43:33;4.70;;;1.42;;
40074;SDS011;26529;51.530;11.754;2022-10-17T01:46:12;4.65;;;1.30;;
40074;SDS011;26529;51.530;11.754;2022-10-17T01:48:43;6.05;;;1.48;;
40074;SDS011;26529;51.530;11.754;2022-10-17T01:56:38;4.28;;;1.55;;
40074;SDS011;26529;51.530;11.754;2022-10-17T01:59:16;3.35;;;1.70;;
40074;SDS011;26529;51.530;11.754;2022-10-17T02:01:47;4.05;;;1.17;;
40074;SDS011;26529;51.530;11.754;2022-10-17T02:04:15;4.03;;;1.75;;
40074;SDS011;26529;51.530;11.754;2022-10-17T02:06:41;3.40;;;1.73;;
40074;SDS011;26529;51.530;11.754;2022-10-17T02:09:23;3.55;;;1.35;;
40074;SDS011;26529;51.530;11.754;2022-10-17T02:11:53;3.83;;;1.30;;
40074;SDS011;26529;51.530;11.754;2022-10-17T02:19:54;4.85;;;1.67;;
40074;SDS011;26529;51.530;11.754;2022-10-17T02:22:53;4.47;;;1.00;;
40074;SDS011;26529;51.530;11.754;2022-10-17T02:25:22;2.70;;;0.77;;
40074;SDS011;26529;51.530;11.754;2022-10-17T02:30:29;2.10;;;0.80;;
40074;SDS011;26529;51.530;11.754;2022-10-17T02:35:42;4.18;;;1.25;;
40074;SDS011;26529;51.530;11.754;2022-10-17T02:38:12;4.35;;;1.30;;
40074;SDS011;26529;51.530;11.754;2022-10-17T02:40:41;2.50;;;1.17;;
40074;SDS011;26529;51.530;11.754;2022-10-17T02:43:08;4.35;;;1.13;;
40074;SDS011;26529;51.530;11.754;2022-10-17T02:45:35;2.25;;;0.93;;
40074;SDS011;26529;51.530;11.754;2022-10-17T02:51:01;2.40;;;0.90;;
40074;SDS011;26529;51.530;11.754;2022-10-17T02:56:27;3.30;;;1.40;;
40074;SDS011;26529;51.530;11.754;2022-10-17T02:58:58;2.28;;;1.25;;
40074;SDS011;26529;51.530;11.754;2022-10-17T03:01:25;3.80;;;1.30;;
40074;SDS011;26529;51.530;11.754;2022-10-17T03:04:03;4.85;;;1.10;;
40074;SDS011;26529;51.530;11.754;2022-10-17T03:06:32;3.88;;;1.50;;
40074;SDS011;26529;51.530;11.754;2022-10-17T03:08:58;3.75;;;1.55;;
40074;SDS011;26529;51.530;11.754;2022-10-17T03:11:23;3.67;;;1.65;;
40074;SDS011;26529;51.530;11.754;2022-10-17T03:13:49;4.40;;;1.50;;
40074;SDS011;26529;51.530;11.754;2022-10-17T03:16:15;2.90;;;1.13;;
40074;SDS011;26529;51.530;11.754;2022-10-17T03:18:42;2.75;;;1.02;;
40074;SDS011;26529;51.530;11.754;2022-10-17T03:21:08;3.28;;;1.30;;
40074;SDS011;26529;51.530;11.754;2022-10-17T03:23:34;2.78;;;1.33;;
40074;SDS011;26529;51.530;11.754;2022-10-17T03:26:05;2.90;;;1.25;;
40074;SDS011;26529;51.530;11.754;2022-10-17T03:28:32;6.35;;;1.33;;
40074;SDS011;26529;51.530;11.754;2022-10-17T03:30:58;3.10;;;1.45;;
40074;SDS011;26529;51.530;11.754;2022-10-17T03:33:24;2.22;;;1.08;;
40074;SDS011;26529;51.530;11.754;2022-10-17T03:35:50;2.75;;;1.08;;
40074;SDS011;26529;51.530;11.754;2022-10-17T03:38:16;5.00;;;1.23;;
40074;SDS011;26529;51.530;11.754;2022-10-17T03:40:41;2.72;;;1.00;;
40074;SDS011;26529;51.530;11.754;2022-10-17T03:43:08;6.22;;;1.70;;
40074;SDS011;26529;51.530;11.754;2022-10-17T03:45:36;2.60;;;1.00;;
40074;SDS011;26529;51.530;11.754;2022-10-17T03:48:02;5.10;;;1.27;;
40074;SDS011;26529;51.530;11.754;2022-10-17T03:50:28;3.65;;;1.40;;
40074;SDS011;26529;51.530;11.754;2022-10-17T03:52:55;3.05;;;1.35;;
40074;SDS011;26529;51.530;11.754;2022-10-17T03:55:21;4.18;;;1.20;;
40074;SDS011;26529;51.530;11.754;2022-10-17T03:57:46;5.35;;;1.50;;
40074;SDS011;26529;51.530;11.754;2022-10-17T04:00:14;1.85;;;1.17;;
40074;SDS011;26529;51.530;11.754;2022-10-17T04:02:40;3.25;;;0.95;;
40074;SDS011;26529;51.530;11.754;2022-10-17T04:05:07;2.83;;;1.05;;
40074;SDS011;26529;51.530;11.754;2022-10-17T04:07:33;4.25;;;0.90;;
40074;SDS011;26529;51.530;11.754;2022-10-17T04:10:02;2.33;;;0.85;;
40074;SDS011;26529;51.530;11.754;2022-10-17T04:12:31;1.70;;;0.80;;
40074;SDS011;26529;51.530;11.754;2022-10-17T04:14:57;5.10;;;1.23;;
40074;SDS011;26529;51.530;11.754;2022-10-17T04:17:23;2.92;;;1.08;;
40074;SDS011;26529;51.530;11.754;2022-10-17T04:19:49;3.13;;;1.35;;
40074;SDS011;26529;51.530;11.754;2022-10-17T04:22:16;2.88;;;1.23;;
40074;SDS011;26529;51.530;11.754;2022-10-17T04:24:42;2.83;;;1.10;;
40074;SDS011;26529;51.530;11.754;2022-10-17T04:27:24;3.47;;;1.08;;
40074;SDS011;26529;51.530;11.754;2022-10-17T04:29:50;6.00;;;1.20;;
40074;SDS011;26529;51.530;11.754;2022-10-17T04:32:20;1.40;;;0.85;;
40074;SDS011;26529;51.530;11.754;2022-10-17T04:34:55;2.42;;;0.85;;
40074;SDS011;26529;51.530;11.754;2022-10-17T04:37:22;3.33;;;0.95;;
40074;SDS011;26529;51.530;11.754;2022-10-17T04:39:55;3.15;;;1.00;;
40074;SDS011;26529;51.530;11.754;2022-10-17T04:42:33;1.67;;;0.80;;
40074;SDS011;26529;51.530;11.754;2022-10-17T04:44:59;2.95;;;0.90;;
40074;SDS011;26529;51.530;11.754;2022-10-17T04:47:26;3.78;;;1.52;;
40074;SDS011;26529;51.530;11.754;2022-10-17T04:49:54;3.78;;;1.33;;
40074;SDS011;26529;51.530;11.754;2022-10-17T04:52:23;2.08;;;0.63;;
40074;SDS011;26529;51.530;11.754;2022-10-17T04:54:50;2.05;;;1.00;;
40074;SDS011;26529;51.530;11.754;2022-10-17T04:57:18;5.57;;;1.30;;
40074;SDS011;26529;51.530;11.754;2022-10-17T05:00:05;3.10;;;0.90;;
40074;SDS011;26529;51.530;11.754;2022-10-17T05:03:12;2.38;;;0.95;;
40074;SDS011;26529;51.530;11.754;2022-10-17T05:05:38;2.95;;;1.20;;
40074;SDS011;26529;51.530;11.754;2022-10-17T05:08:06;2.60;;;1.15;;
40074;SDS011;26529;51.530;11.754;2022-10-17T05:10:36;3.95;;;1.13;;
40074;SDS011;26529;51.530;11.754;2022-10-17T05:13:03;3.05;;;1.30;;
40074;SDS011;26529;51.530;11.754;2022-10-17T05:15:31;2.13;;;0.77;;
40074;SDS011;26529;51.530;11.754;2022-10-17T05:17:57;1.90;;;0.90;;
40074;SDS011;26529;51.530;11.754;2022-10-17T05:20:25;1.92;;;0.85;;
40074;SDS011;26529;51.530;11.754;2022-10-17T05:22:51;4.72;;;1.23;;
40074;SDS011;26529;51.530;11.754;2022-10-17T05:25:17;2.65;;;0.98;;
40074;SDS011;26529;51.530;11.754;2022-10-17T05:27:43;1.77;;;0.70;;
40074;SDS011;26529;51.530;11.754;2022-10-17T05:30:09;2.20;;;0.85;;
40074;SDS011;26529;51.530;11.754;2022-10-17T05:32:36;1.48;;;0.93;;
40074;SDS011;26529;51.530;11.754;2022-10-17T05:35:02;6.07;;;1.33;;
40074;SDS011;26529;51.530;11.754;2022-10-17T05:37:29;2.30;;;1.02;;
40074;SDS011;26529;51.530;11.754;2022-10-17T05:39:56;2.15;;;0.85;;
40074;SDS011;26529;51.530;11.754;2022-10-17T05:42:23;2.00;;;1.15;;
40074;SDS011;26529;51.530;11.754;2022-10-17T05:44:49;3.72;;;1.20;;
40074;SDS011;26529;51.530;11.754;2022-10-17T05:47:17;3.15;;;1.13;;
40074;SDS011;26529;51.530;11.754;2022-10-17T05:49:43;4.15;;;1.33;;
40074;SDS011;26529;51.530;11.754;2022-10-17T05:52:09;2.05;;;0.90;;
40074;SDS011;26529;51.530;11.754;2022-10-17T05:54:49;3.20;;;0.90;;
40074;SDS011;26529;51.530;11.754;2022-10-17T05:57:14;2.50;;;0.90;;
40074;SDS011;26529;51.530;11.754;2022-10-17T05:59:40;1.70;;;0.90;;
40074;SDS011;26529;51.530;11.754;2022-10-17T06:02:11;2.33;;;1.10;;
40074;SDS011;26529;51.530;11.754;2022-10-17T06:04:37;4.22;;;0.90;;
40074;SDS011;26529;51.530;11.754;2022-10-17T06:07:03;3.13;;;1.05;;
40074;SDS011;26529;51.530;11.754;2022-10-17T06:09:31;2.35;;;0.90;;
40074;SDS011;26529;51.530;11.754;2022-10-17T06:11:56;1.90;;;1.27;;
40074;SDS011;26529;51.530;11.754;2022-10-17T06:14:22;3.67;;;1.52;;
40074;SDS011;26529;51.530;11.754;2022-10-17T06:16:51;1.63;;;0.80;;
40074;SDS011;26529;51.530;11.754;2022-10-17T06:19:17;2.97;;;0.73;;
40074;SDS011;26529;51.530;11.754;2022-10-17T06:21:44;3.40;;;1.20;;
40074;SDS011;26529;51.530;11.754;2022-10-17T06:24:12;3.45;;;1.40;;
40074;SDS011;26529;51.530;11.754;2022-10-17T06:26:41;3.08;;;1.08;;
40074;SDS011;26529;51.530;11.754;2022-10-17T06:29:08;4.13;;;1.00;;
40074;SDS011;26529;51.530;11.754;2022-10-17T06:31:39;3.38;;;1.27;;
40074;SDS011;26529;51.530;11.754;2022-10-17T06:34:05;6.13;;;0.80;;
40074;SDS011;26529;51.530;11.754;2022-10-17T06:36:31;4.05;;;1.38;;
40074;SDS011;26529;51.530;11.754;2022-10-17T06:38:57;2.17;;;1.08;;
40074;SDS011;26529;51.530;11.754;2022-10-17T06:41:30;6.18;;;1.52;;
40074;SDS011;26529;51.530;11.754;2022-10-17T06:44:02;3.00;;;1.15;;
40074;SDS011;26529;51.530;11.754;2022-10-17T06:46:53;5.38;;;1.20;;
40074;SDS011;26529;51.530;11.754;2022-10-17T06:49:20;2.70;;;0.98;;
40074;SDS011;26529;51.530;11.754;2022-10-17T06:51:50;7.10;;;1.40;;
40074;SDS011;26529;51.530;11.754;2022-10-17T06:54:20;3.70;;;1.60;;
40074;SDS011;26529;51.530;11.754;2022-10-17T06:57:04;2.70;;;0.85;;
40074;SDS011;26529;51.530;11.754;2022-10-17T06:59:49;5.35;;;1.48;;
40074;SDS011;26529;51.530;11.754;2022-10-17T07:02:22;5.90;;;1.20;;
40074;SDS011;26529;51.530;11.754;2022-10-17T07:04:49;5.38;;;1.55;;
40074;SDS011;26529;51.530;11.754;2022-10-17T07:07:15;3.22;;;1.20;;
40074;SDS011;26529;51.530;11.754;2022-10-17T07:09:40;6.45;;;1.73;;
40074;SDS011;26529;51.530;11.754;2022-10-17T07:12:07;5.95;;;1.35;;
40074;SDS011;26529;51.530;11.754;2022-10-17T07:14:33;7.93;;;1.20;;
40074;SDS011;26529;51.530;11.754;2022-10-17T07:17:00;8.30;;;1.55;;
40074;SDS011;26529;51.530;11.754;2022-10-17T07:19:28;3.22;;;1.40;;
40074;SDS011;26529;51.530;11.754;2022-10-17T07:21:53;9.45;;;1.98;;
40074;SDS011;26529;51.530;11.754;2022-10-17T07:24:20;7.05;;;1.50;;
40074;SDS011;26529;51.530;11.754;2022-10-17T07:26:51;6.22;;;1.60;;
40074;SDS011;26529;51.530;11.754;2022-10-17T07:29:18;8.15;;;3.25;;
40074;SDS011;26529;51.530;11.754;2022-10-17T07:31:54;5.45;;;3.40;;
40074;SDS011;26529;51.530;11.754;2022-10-17T07:34:21;8.18;;;3.50;;
40074;SDS011;26529;51.530;11.754;2022-10-17T07:36:52;5.13;;;3.33;;
40074;SDS011;26529;51.530;11.754;2022-10-17T07:39:18;6.55;;;3.63;;
40074;SDS011;26529;51.530;11.754;2022-10-17T07:41:44;7.30;;;4.03;;
40074;SDS011;26529;51.530;11.754;2022-10-17T07:44:10;7.40;;;3.90;;
40074;SDS011;26529;51.530;11.754;2022-10-17T07:46:42;8.27;;;3.90;;
40074;SDS011;26529;51.530;11.754;2022-10-17T07:49:08;9.25;;;3.20;;
40074;SDS011;26529;51.530;11.754;2022-10-17T07:51:33;11.73;;;4.05;;
40074;SDS011;26529;51.530;11.754;2022-10-17T07:53:59;11.35;;;3.88;;
40074;SDS011;26529;51.530;11.754;2022-10-17T07:56:25;7.07;;;3.45;;
40074;SDS011;26529;51.530;11.754;2022-10-17T07:58:51;7.25;;;3.00;;
40074;SDS011;26529;51.530;11.754;2022-10-17T08:01:17;10.15;;;3.40;;
40074;SDS011;26529;51.530;11.754;2022-10-17T08:03:43;12.65;;;3.35;;
40074;SDS011;26529;51.530;11.754;2022-10-17T08:06:10;9.38;;;3.10;;
40074;SDS011;26529;51.530;11.754;2022-10-17T08:08:36;4.82;;;2.60;;
40074;SDS011;26529;51.530;11.754;2022-10-17T08:11:05;5.28;;;2.63;;
40074;SDS011;26529;51.530;11.754;2022-10-17T08:13:34;6.97;;;2.38;;
40074;SDS011;26529;51.530;11.754;2022-10-17T08:16:00;4.75;;;2.15;;
40074;SDS011;26529;51.530;11.754;2022-10-17T08:18:27;2.72;;;1.70;;
40074;SDS011;26529;51.530;11.754;2022-10-17T08:20:53;4.75;;;1.77;;
40074;SDS011;26529;51.530;11.754;2022-10-17T08:23:19;3.58;;;2.03;;
40074;SDS011;26529;51.530;11.754;2022-10-17T08:25:45;3.85;;;1.95;;
40074;SDS011;26529;51.530;11.754;2022-10-17T08:28:10;3.83;;;2.05;;
40074;SDS011;26529;51.530;11.754;2022-10-17T08:30:36;8.63;;;2.55;;
40074;SDS011;26529;51.530;11.754;2022-10-17T08:33:01;2.65;;;1.92;;
40074;SDS011;26529;51.530;11.754;2022-10-17T08:35:27;7.00;;;1.85;;
40074;SDS011;26529;51.530;11.754;2022-10-17T08:37:52;6.03;;;2.22;;
40074;SDS011;26529;51.530;11.754;2022-10-17T08:40:20;5.32;;;1.92;;
40074;SDS011;26529;51.530;11.754;2022-10-17T08:45:29;3.85;;;1.98;;
40074;SDS011;26529;51.530;11.754;2022-10-17T08:48:00;2.55;;;1.67;;
40074;SDS011;26529;51.530;11.754;2022-10-17T08:53:21;4.47;;;1.63;;
40074;SDS011;26529;51.530;11.754;2022-10-17T08:55:51;3.83;;;1.63;;
40074;SDS011;26529;51.530;11.754;2022-10-17T09:00:50;3.00;;;1.85;;
40074;SDS011;26529;51.530;11.754;2022-10-17T09:19:52;2.65;;;1.67;;
40074;SDS011;26529;51.530;11.754;2022-10-17T09:22:20;3.15;;;1.58;;
40074;SDS011;26529;51.530;11.754;2022-10-17T09:24:59;3.08;;;1.50;;
40074;SDS011;26529;51.530;11.754;2022-10-17T09:30:28;3.80;;;1.55;;
40074;SDS011;26529;51.530;11.754;2022-10-17T09:32:59;1.88;;;1.20;;
40074;SDS011;26529;51.530;11.754;2022-10-17T09:35:26;4.35;;;1.88;;
40074;SDS011;26529;51.530;11.754;2022-10-17T09:37:53;2.20;;;1.40;;
40074;SDS011;26529;51.530;11.754;2022-10-17T09:40:26;3.63;;;1.85;;
40074;SDS011;26529;51.530;11.754;2022-10-17T09:42:56;4.70;;;2.08;;
40074;SDS011;26529;51.530;11.754;2022-10-17T09:45:24;4.47;;;1.80;;
40074;SDS011;26529;51.530;11.754;2022-10-17T09:47:56;2.40;;;1.42;;
40074;SDS011;26529;51.530;11.754;2022-10-17T09:50:32;2.72;;;1.20;;
40074;SDS011;26529;51.530;11.754;2022-10-17T09:53:05;4.65;;;1.63;;
40074;SDS011;26529;51.530;11.754;2022-10-17T09:55:44;3.47;;;1.83;;
40074;SDS011;26529;51.530;11.754;2022-10-17T09:58:14;2.78;;;1.67;;
40074;SDS011;26529;51.530;11.754;2022-10-17T10:00:41;4.45;;;1.77;;
40074;SDS011;26529;51.530;11.754;2022-10-17T10:05:37;2.58;;;1.50;;
40074;SDS011;26529;51.530;11.754;2022-10-17T10:08:14;4.10;;;1.58;;
40074;SDS011;26529;51.530;11.754;2022-10-17T10:10:42;3.67;;;1.27;;
40074;SDS011;26529;51.530;11.754;2022-10-17T10:15:38;2.72;;;1.70;;
40074;SDS011;26529;51.530;11.754;2022-10-17T10:21:06;2.08;;;1.15;;
40074;SDS011;26529;51.530;11.754;2022-10-17T10:23:38;3.17;;;1.60;;
40074;SDS011;26529;51.530;11.754;2022-10-17T10:26:24;2.88;;;1.58;;
40074;SDS011;26529;51.530;11.754;2022-10-17T10:28:55;6.32;;;1.55;;
40074;SDS011;26529;51.530;11.754;2022-10-17T10:31:25;1.70;;;1.20;;
40074;SDS011;26529;51.530;11.754;2022-10-17T10:33:53;5.18;;;1.60;;
40074;SDS011;26529;51.530;11.754;2022-10-17T10:36:19;5.22;;;1.30;;
40074;SDS011;26529;51.530;11.754;2022-10-17T10:38:53;1.77;;;1.23;;
40074;SDS011;26529;51.530;11.754;2022-10-17T10:41:22;2.45;;;1.40;;
40074;SDS011;26529;51.530;11.754;2022-10-17T10:43:48;3.40;;;1.63;;
40074;SDS011;26529;51.530;11.754;2022-10-17T10:46:16;5.47;;;1.77;;
40074;SDS011;26529;51.530;11.754;2022-10-17T10:51:26;3.40;;;1.60;;
40074;SDS011;26529;51.530;11.754;2022-10-17T10:54:05;2.97;;;1.40;;
40074;SDS011;26529;51.530;11.754;2022-10-17T10:56:41;3.92;;;1.75;;
40074;SDS011;26529;51.530;11.754;2022-10-17T10:59:16;3.20;;;1.75;;
40074;SDS011;26529;51.530;11.754;2022-10-17T11:04:49;5.22;;;1.48;;
40074;SDS011;26529;51.530;11.754;2022-10-17T11:09:58;3.22;;;1.75;;
40074;SDS011;26529;51.530;11.754;2022-10-17T11:12:30;4.63;;;1.63;;
40074;SDS011;26529;51.530;11.754;2022-10-17T11:17:56;3.38;;;1.40;;
40074;SDS011;26529;51.530;11.754;2022-10-17T11:23:18;2.78;;;1.55;;
40074;SDS011;26529;51.530;11.754;2022-10-17T11:25:52;3.92;;;1.48;;
40074;SDS011;26529;51.530;11.754;2022-10-17T11:28:21;2.95;;;1.58;;
40074;SDS011;26529;51.530;11.754;2022-10-17T11:30:59;4.13;;;1.45;;
40074;SDS011;26529;51.530;11.754;2022-10-17T11:33:33;1.70;;;1.20;;
40074;SDS011;26529;51.530;11.754;2022-10-17T11:36:04;9.48;;;1.52;;
40074;SDS011;26529;51.530;11.754;2022-10-17T11:38:35;7.70;;;2.47;;
40074;SDS011;26529;51.530;11.754;2022-10-17T11:41:04;6.55;;;1.38;;
40074;SDS011;26529;51.530;11.754;2022-10-17T11:43:41;8.77;;;1.88;;
40074;SDS011;26529;51.530;11.754;2022-10-17T11:51:36;10.48;;;1.90;;
40074;SDS011;26529;51.530;11.754;2022-10-17T11:54:10;6.32;;;1.70;;
40074;SDS011;26529;51.530;11.754;2022-10-17T11:56:44;9.20;;;1.92;;
40074;SDS011;26529;51.530;11.754;2022-10-17T12:02:08;3.45;;;1.50;;
40074;SDS011;26529;51.530;11.754;2022-10-17T12:07:29;5.80;;;1.50;;
40074;SDS011;26529;51.530;11.754;2022-10-17T12:12:51;4.60;;;1.23;;
40074;SDS011;26529;51.530;11.754;2022-10-17T12:17:55;2.30;;;1.17;;
40074;SDS011;26529;51.530;11.754;2022-10-17T12:20:33;9.38;;;1.50;;
40074;SDS011;26529;51.530;11.754;2022-10-17T12:23:03;3.70;;;1.50;;
40074;SDS011;26529;51.530;11.754;2022-10-17T12:25:35;4.22;;;1.50;;
40074;SDS011;26529;51.530;11.754;2022-10-17T12:28:11;6.43;;;1.70;;
40074;SDS011;26529;51.530;11.754;2022-10-17T12:34:14;3.78;;;1.27;;
40074;SDS011;26529;51.530;11.754;2022-10-17T12:38:47;3.42;;;1.20;;
40074;SDS011;26529;51.530;11.754;2022-10-17T12:44:49;6.78;;;1.38;;
40074;SDS011;26529;51.530;11.754;2022-10-17T12:46:53;9.63;;;1.27;;
40074;SDS011;26529;51.530;11.754;2022-10-17T12:49:43;6.30;;;1.25;;
40074;SDS011;26529;51.530;11.754;2022-10-17T12:54:39;4.68;;;1.23;;
40074;SDS011;26529;51.530;11.754;2022-10-17T12:57:26;5.53;;;1.50;;
40074;SDS011;26529;51.530;11.754;2022-10-17T13:00:22;6.20;;;1.63;;
40074;SDS011;26529;51.530;11.754;2022-10-17T13:02:51;5.22;;;1.17;;
40074;SDS011;26529;51.530;11.754;2022-10-17T13:05:26;5.35;;;1.38;;
40074;SDS011;26529;51.530;11.754;2022-10-17T13:10:23;10.50;;;1.50;;
40074;SDS011;26529;51.530;11.754;2022-10-17T13:12:53;7.28;;;1.63;;
40074;SDS011;26529;51.530;11.754;2022-10-17T13:15:28;6.05;;;1.55;;
40074;SDS011;26529;51.530;11.754;2022-10-17T13:17:55;7.65;;;1.40;;
40074;SDS011;26529;51.530;11.754;2022-10-17T13:20:23;3.60;;;1.55;;
40074;SDS011;26529;51.530;11.754;2022-10-17T13:22:52;14.77;;;1.55;;
40074;SDS011;26529;51.530;11.754;2022-10-17T13:25:19;8.30;;;1.45;;
40074;SDS011;26529;51.530;11.754;2022-10-17T13:27:46;5.55;;;1.15;;
40074;SDS011;26529;51.530;11.754;2022-10-17T13:30:26;5.03;;;1.48;;
40074;SDS011;26529;51.530;11.754;2022-10-17T13:32:56;5.20;;;1.40;;
40074;SDS011;26529;51.530;11.754;2022-10-17T13:35:55;7.97;;;1.88;;
40074;SDS011;26529;51.530;11.754;2022-10-17T13:38:14;15.85;;;2.05;;
40074;SDS011;26529;51.530;11.754;2022-10-17T13:40:41;7.63;;;1.90;;
40074;SDS011;26529;51.530;11.754;2022-10-17T13:43:13;4.90;;;1.98;;
40074;SDS011;26529;51.530;11.754;2022-10-17T13:45:44;7.32;;;1.83;;
40074;SDS011;26529;51.530;11.754;2022-10-17T13:48:23;7.90;;;1.58;;
40074;SDS011;26529;51.530;11.754;2022-10-17T13:50:51;6.57;;;1.65;;
40074;SDS011;26529;51.530;11.754;2022-10-17T13:53:23;10.45;;;3.20;;
40074;SDS011;26529;51.530;11.754;2022-10-17T13:58:39;9.18;;;2.25;;
40074;SDS011;26529;51.530;11.754;2022-10-17T14:01:07;4.45;;;1.48;;
40074;SDS011;26529;51.530;11.754;2022-10-17T14:03:33;3.35;;;1.17;;
40074;SDS011;26529;51.530;11.754;2022-10-17T14:08:35;6.63;;;1.80;;
40074;SDS011;26529;51.530;11.754;2022-10-17T14:11:12;6.13;;;1.50;;
40074;SDS011;26529;51.530;11.754;2022-10-17T14:13:40;7.13;;;1.48;;
40074;SDS011;26529;51.530;11.754;2022-10-17T14:16:06;3.10;;;1.50;;
40074;SDS011;26529;51.530;11.754;2022-10-17T14:18:33;4.72;;;1.33;;
40074;SDS011;26529;51.530;11.754;2022-10-17T14:21:00;3.58;;;1.13;;
40074;SDS011;26529;51.530;11.754;2022-10-17T14:23:28;4.18;;;1.35;;
40074;SDS011;26529;51.530;11.754;2022-10-17T14:26:12;4.03;;;1.30;;
40074;SDS011;26529;51.530;11.754;2022-10-17T14:28:38;8.80;;;1.10;;
40074;SDS011;26529;51.530;11.754;2022-10-17T14:33:49;3.95;;;1.08;;
40074;SDS011;26529;51.530;11.754;2022-10-17T14:36:17;3.83;;;1.38;;
40074;SDS011;26529;51.530;11.754;2022-10-17T14:38:49;5.30;;;1.30;;
40074;SDS011;26529;51.530;11.754;2022-10-17T14:41:22;2.55;;;1.25;;
40074;SDS011;26529;51.530;11.754;2022-10-17T14:43:54;7.22;;;1.50;;
40074;SDS011;26529;51.530;11.754;2022-10-17T14:46:22;3.20;;;1.23;;
40074;SDS011;26529;51.530;11.754;2022-10-17T14:48:51;4.55;;;1.60;;
40074;SDS011;26529;51.530;11.754;2022-10-17T14:51:19;2.42;;;1.15;;
40074;SDS011;26529;51.530;11.754;2022-10-17T14:53:58;6.50;;;1.63;;
40074;SDS011;26529;51.530;11.754;2022-10-17T14:56:46;4.30;;;1.17;;
40074;SDS011;26529;51.530;11.754;2022-10-17T14:59:15;5.88;;;1.60;;
40074;SDS011;26529;51.530;11.754;2022-10-17T15:01:43;3.20;;;1.30;;
40074;SDS011;26529;51.530;11.754;2022-10-17T15:04:08;5.65;;;1.50;;
40074;SDS011;26529;51.530;11.754;2022-10-17T15:06:35;4.72;;;1.60;;
40074;SDS011;26529;51.530;11.754;2022-10-17T15:09:01;3.80;;;1.33;;
40074;SDS011;26529;51.530;11.754;2022-10-17T15:11:27;6.63;;;1.25;;
40074;SDS011;26529;51.530;11.754;2022-10-17T15:13:52;3.47;;;1.63;;
40074;SDS011;26529;51.530;11.754;2022-10-17T15:16:19;8.55;;;1.55;;
40074;SDS011;26529;51.530;11.754;2022-10-17T15:18:46;3.47;;;1.83;;
40074;SDS011;26529;51.530;11.754;2022-10-17T15:21:14;3.30;;;1.30;;
40074;SDS011;26529;51.530;11.754;2022-10-17T15:23:41;5.28;;;1.98;;
40074;SDS011;26529;51.530;11.754;2022-10-17T15:26:14;5.78;;;2.63;;
40074;SDS011;26529;51.530;11.754;2022-10-17T15:28:41;11.38;;;6.20;;
40074;SDS011;26529;51.530;11.754;2022-10-17T15:31:12;3.92;;;2.47;;
40074;SDS011;26529;51.530;11.754;2022-10-17T15:33:41;9.35;;;2.88;;
40074;SDS011;26529;51.530;11.754;2022-10-17T15:36:20;7.35;;;2.78;;
40074;SDS011;26529;51.530;11.754;2022-10-17T15:38:46;5.20;;;1.75;;
40074;SDS011;26529;51.530;11.754;2022-10-17T15:41:12;5.25;;;1.98;;
40074;SDS011;26529;51.530;11.754;2022-10-17T15:43:38;6.10;;;2.70;;
40074;SDS011;26529;51.530;11.754;2022-10-17T15:46:07;6.00;;;2.22;;
40074;SDS011;26529;51.530;11.754;2022-10-17T15:48:36;5.95;;;1.95;;
40074;SDS011;26529;51.530;11.754;2022-10-17T15:51:01;4.43;;;2.45;;
40074;SDS011;26529;51.530;11.754;2022-10-17T15:53:27;5.78;;;2.00;;
40074;SDS011;26529;51.530;11.754;2022-10-17T15:55:52;10.63;;;2.75;;
40074;SDS011;26529;51.530;11.754;2022-10-17T15:58:18;8.02;;;2.25;;
40074;SDS011;26529;51.530;11.754;2022-10-17T16:00:44;9.75;;;2.75;;
40074;SDS011;26529;51.530;11.754;2022-10-17T16:03:10;5.95;;;2.75;;
40074;SDS011;26529;51.530;11.754;2022-10-17T16:05:36;10.50;;;2.30;;
40074;SDS011;26529;51.530;11.754;2022-10-17T16:08:01;7.03;;;2.13;;
40074;SDS011;26529;51.530;11.754;2022-10-17T16:10:27;4.82;;;1.92;;
40074;SDS011;26529;51.530;11.754;2022-10-17T16:12:53;4.43;;;1.85;;
40074;SDS011;26529;51.530;11.754;2022-10-17T16:15:22;5.18;;;2.17;;
40074;SDS011;26529;51.530;11.754;2022-10-17T16:17:49;6.68;;;2.25;;
40074;SDS011;26529;51.530;11.754;2022-10-17T16:20:16;10.90;;;2.40;;
40074;SDS011;26529;51.530;11.754;2022-10-17T16:22:43;5.65;;;1.95;;
40074;SDS011;26529;51.530;11.754;2022-10-17T16:25:18;5.63;;;2.15;;
40074;SDS011;26529;51.530;11.754;2022-10-17T16:27:47;5.25;;;1.88;;
40074;SDS011;26529;51.530;11.754;2022-10-17T16:30:15;8.73;;;2.47;;
40074;SDS011;26529;51.530;11.754;2022-10-17T16:32:41;5.53;;;2.15;;
40074;SDS011;26529;51.530;11.754;2022-10-17T16:35:08;5.63;;;2.45;;
40074;SDS011;26529;51.530;11.754;2022-10-17T16:37:35;7.95;;;2.10;;
40074;SDS011;26529;51.530;11.754;2022-10-17T16:40:01;8.52;;;1.90;;
40074;SDS011;26529;51.530;11.754;2022-10-17T16:42:28;5.82;;;2.10;;
40074;SDS011;26529;51.530;11.754;2022-10-17T16:44:54;9.27;;;2.00;;
40074;SDS011;26529;51.530;11.754;2022-10-17T16:47:19;8.02;;;1.70;;
40074;SDS011;26529;51.530;11.754;2022-10-17T16:49:45;10.68;;;2.30;;
40074;SDS011;26529;51.530;11.754;2022-10-17T16:52:10;11.38;;;3.08;;
40074;SDS011;26529;51.530;11.754;2022-10-17T16:54:36;20.30;;;2.80;;
40074;SDS011;26529;51.530;11.754;2022-10-17T16:57:02;14.25;;;2.45;;